Time;durP1;ratioP1;P1;durP2;ratioP2;P2;SDS_P1;SDS_P2;PMS_P1;PMS_P2;Temp;Humidity;BMP_temperature;BMP_pressure;BME280_temperature;BME280_humidity;BME280_pressure;Samples;Min_cycle;Max_cycle;Signal;HPM_P1;HPM_P2
2022/03/17 00:00:14;;;;;;;;;;;;;;;5.31;82.37;100464.03;5030670;28;19909;-50
2022/03/17 00:02:40;;;;;;;;;;;;;;;6.35;79.05;100462.44;5030585;28;20006;-50
2022/03/17 00:05:08;;;;;;;;;;;;;;;6.14;77.93;100465.50;5032117;28;19963;-52
2022/03/17 00:07:34;;;;;;;;;;;;;;;6.21;77.32;100454.13;5051844;28;19995;-52
2022/03/17 00:09:59;;;;;;;;;;;;;;;5.94;78.27;100451.63;5051302;28;20011;-51
2022/03/17 00:12:25;;;;;;;;;;;;;;;5.81;78.11;100457.34;5050620;28;20286;-49
2022/03/17 00:14:51;;;;;;;;;;;;;;;5.87;78.39;100454.06;5051073;28;20386;-49
2022/03/17 00:17:17;;;;;;;;;;;;;;;5.67;78.43;100461.34;5051603;28;19999;-49
2022/03/17 00:19:42;;;;;;;;;;;;;;;5.90;78.46;100463.50;5051157;28;20092;-48
2022/03/17 00:22:08;;;;;;;;;;;;;;;6.14;75.99;100457.56;5051131;28;19908;-50
2022/03/17 00:24:37;;;;;;;;;;;;;;;5.74;78.14;100459.75;5050525;28;20548;-50
2022/03/17 00:27:03;;;;;;;;;;;;;;;5.58;78.47;100459.63;5050440;28;19916;-49
2022/03/17 00:29:28;;;;;;;;;;;;;;;5.46;79.72;100464.31;5051232;28;20555;-52
2022/03/17 00:31:53;;;;;;;;;;;;;;;5.24;80.13;100473.56;5050662;28;20031;-49
2022/03/17 00:34:19;;;;;;;;;;;;;;;5.16;80.80;100478.72;5051061;28;19916;-49
2022/03/17 00:36:46;;;;;;;;;;;;;;;5.46;80.38;100472.25;5051057;28;19915;-51
2022/03/17 00:39:11;;;;;;;;;;;;;;;6.23;76.81;100472.47;5050734;28;19920;-38
2022/03/17 00:41:36;;;;;;;;;;;;;;;5.69;78.17;100472.59;5050993;28;19919;-38
2022/03/17 00:44:02;;;;;;;;;;;;;;;5.44;79.17;100472.38;5050093;28;19909;-38
2022/03/17 00:46:28;;;;;;;;;;;;;;;5.48;78.99;100468.50;5050736;28;19916;-37
2022/03/17 00:48:53;;;;;;;;;;;;;;;5.39;78.83;100481.78;5051216;28;19909;-37
2022/03/17 00:51:19;;;;;;;;;;;;;;;5.32;78.38;100473.63;5051203;28;20295;-38
2022/03/17 00:53:46;;;;;;;;;;;;;;;5.34;77.69;100484.03;5051088;28;19912;-37
2022/03/17 00:56:11;;;;;;;;;;;;;;;5.60;78.29;100476.16;5051023;28;20516;-38
2022/03/17 00:58:37;;;;;;;;;;;;;;;5.66;76.89;100484.28;5050779;28;19913;-38
2022/03/17 01:01:02;;;;;;;;;;;;;;;5.26;79.58;100482.97;5050584;28;19916;-38
2022/03/17 01:03:28;;;;;;;;;;;;;;;5.17;79.82;100486.50;5050172;28;19909;-38
2022/03/17 01:05:53;;;;;;;;;;;;;;;5.09;79.38;100491.72;5053071;28;19940;-37
2022/03/17 01:08:19;;;;;;;;;;;;;;;5.04;80.39;100501.88;5050327;28;19913;-37
2022/03/17 01:10:44;;;;;;;;;;;;;;;5.13;80.23;100500.16;5051097;28;19926;-37
2022/03/17 01:13:10;;;;;;;;;;;;;;;5.05;81.41;100509.66;5050242;28;19973;-38
2022/03/17 01:15:35;;;;;;;;;;;;;;;5.73;80.10;100513.56;5050508;28;19916;-38
2022/03/17 01:18:02;;;;;;;;;;;;;;;5.59;78.99;100506.19;5050448;28;19916;-37
2022/03/17 01:20:29;;;;;;;;;;;;;;;5.15;81.30;100506.13;5050446;28;19955;-38
2022/03/17 01:22:54;;;;;;;;;;;;;;;5.17;81.36;100507.63;5050609;28;19970;-38
2022/03/17 01:25:19;;;;;;;;;;;;;;;5.25;81.37;100509.50;5050098;28;19920;-37
2022/03/17 01:27:45;;;;;;;;;;;;;;;5.18;82.11;100516.34;5031929;28;19909;-38
2022/03/17 01:30:12;;;;;;;;;;;;;;;5.24;82.83;100518.41;5050530;28;19924;-38
2022/03/17 01:32:40;;;;;;;;;;;;;;;5.16;82.98;100519.16;5049905;28;19915;-38
2022/03/17 01:35:07;;;;;;;;;;;;;;;5.44;82.98;100519.91;5050250;28;19916;-38
2022/03/17 01:37:33;;;;;;;;;;;;;;;6.09;80.64;100523.25;5050460;28;19983;-38
2022/03/17 01:39:58;;;;;;;;;;;;;;;5.61;81.07;100518.25;5049373;28;20012;-38
2022/03/17 01:42:23;;;;;;;;;;;;;;;5.36;81.85;100527.75;5050120;28;19987;-39
2022/03/17 01:44:48;;;;;;;;;;;;;;;5.21;83.05;100518.72;5049771;28;19916;-38
2022/03/17 01:47:31;;;;;;;;;;;;;;;4.69;85.96;100524.56;5049902;28;19967;-38
2022/03/17 01:49:58;;;;;;;;;;;;;;;4.92;85.96;100522.34;5050475;28;19909;-38
2022/03/17 01:52:24;;;;;;;;;;;;;;;5.04;84.49;100530.91;5049909;28;19908;-38
2022/03/17 01:54:49;;;;;;;;;;;;;;;5.05;85.55;100533.38;5050323;28;19916;-38
2022/03/17 01:57:15;;;;;;;;;;;;;;;5.54;84.51;100543.63;5032148;28;19909;-38
2022/03/17 01:59:40;;;;;;;;;;;;;;;5.53;84.42;100543.75;5050031;28;19917;-38
2022/03/17 02:02:07;;;;;;;;;;;;;;;5.40;84.73;100542.31;5050040;28;19915;-38
2022/03/17 02:04:33;;;;;;;;;;;;;;;5.20;85.12;100544.28;5049887;28;20266;-38
2022/03/17 02:06:58;;;;;;;;;;;;;;;5.09;86.53;100532.09;5051988;28;20364;-39
2022/03/17 02:09:26;;;;;;;;;;;;;;;5.19;86.45;100536.50;5050483;28;19965;-38
2022/03/17 02:14:46;;;;;;;;;;;;;;;5.32;85.29;100544.06;5050775;28;19916;-39
2022/03/17 02:17:11;;;;;;;;;;;;;;;5.70;85.01;100544.75;5032457;28;20348;-38
2022/03/17 02:19:37;;;;;;;;;;;;;;;6.09;82.49;100541.75;5050212;28;19928;-38
2022/03/17 02:22:03;;;;;;;;;;;;;;;5.74;83.01;100540.81;5050304;28;19955;-39
2022/03/17 02:27:12;;;;;;;;;;;;;;;5.52;83.47;100545.59;5069687;28;20032;-38
2022/03/17 02:29:38;;;;;;;;;;;;;;;5.06;85.17;100553.53;5070485;28;20387;-38
2022/03/17 02:32:03;;;;;;;;;;;;;;;4.82;87.82;100563.78;5069501;28;19908;-38
2022/03/17 02:34:29;;;;;;;;;;;;;;;5.32;86.39;100552.81;5069845;28;20391;-39
2022/03/17 02:36:55;;;;;;;;;;;;;;;5.35;85.09;100555.16;5070185;28;20002;-38
2022/03/17 02:39:21;;;;;;;;;;;;;;;5.31;84.99;100563.50;5069854;28;19920;-39
2022/03/17 02:41:47;;;;;;;;;;;;;;;5.75;83.85;100568.88;5070203;28;19908;-38
2022/03/17 02:44:12;;;;;;;;;;;;;;;6.00;82.13;100567.31;5069905;28;20008;-39
2022/03/17 02:46:38;;;;;;;;;;;;;;;5.61;83.02;100583.44;5069498;28;19915;-38
2022/03/17 02:49:03;;;;;;;;;;;;;;;5.28;84.84;100591.03;5070100;28;20468;-39
2022/03/17 02:51:29;;;;;;;;;;;;;;;5.27;85.23;100602.56;5072974;28;19915;-38
2022/03/17 02:53:54;;;;;;;;;;;;;;;5.19;85.35;100608.56;5073838;28;19915;-38
2022/03/17 02:56:19;;;;;;;;;;;;;;;5.14;86.42;100610.00;5073795;28;19909;-38
2022/03/17 02:58:44;;;;;;;;;;;;;;;5.25;87.25;100613.28;5073694;28;20019;-38
2022/03/17 03:01:10;;;;;;;;;;;;;;;5.91;84.49;100605.19;5073879;28;19915;-38
2022/03/17 03:03:35;;;;;;;;;;;;;;;5.54;84.60;100606.13;5072856;28;19943;-38
2022/03/17 03:06:01;;;;;;;;;;;;;;;5.69;84.73;100602.00;5076229;28;20383;-38
2022/03/17 03:08:27;;;;;;;;;;;;;;;5.52;84.73;100597.53;5073339;28;20379;-37
2022/03/17 03:10:52;;;;;;;;;;;;;;;5.48;84.84;100603.13;5073451;28;19912;-38
2022/03/17 03:13:17;;;;;;;;;;;;;;;5.48;85.33;100597.00;5073281;28;19908;-38
2022/03/17 03:15:43;;;;;;;;;;;;;;;5.61;84.44;100610.66;5073390;28;19909;-38
2022/03/17 03:18:08;;;;;;;;;;;;;;;5.73;85.71;100619.22;5073280;28;20065;-38
2022/03/17 03:20:33;;;;;;;;;;;;;;;6.42;83.42;100616.84;5073260;28;20008;-38
2022/03/17 03:22:59;;;;;;;;;;;;;;;5.89;82.94;100626.47;5073135;28;20022;-38
2022/03/17 03:25:24;;;;;;;;;;;;;;;5.76;83.62;100626.00;5066434;28;19916;-38
2022/03/17 03:27:49;;;;;;;;;;;;;;;5.77;84.09;100623.22;5052685;28;19912;-37
2022/03/17 03:30:15;;;;;;;;;;;;;;;5.81;84.70;100616.66;5053360;28;19935;-37
2022/03/17 03:32:42;;;;;;;;;;;;;;;6.04;83.18;100616.22;5052559;28;20556;-37
2022/03/17 03:37:51;;;;;;;;;;;;;;;6.40;82.34;100638.13;5053235;28;19963;-38
2022/03/17 03:40:17;;;;;;;;;;;;;;;6.04;83.11;100632.06;5052927;28;19908;-38
2022/03/17 03:42:42;;;;;;;;;;;;;;;5.93;83.37;100635.75;5052743;28;20073;-38
2022/03/17 03:45:08;;;;;;;;;;;;;;;5.88;83.90;100638.84;5051932;28;20411;-38
2022/03/17 03:47:33;;;;;;;;;;;;;;;5.83;84.35;100638.47;5052461;28;20269;-48
2022/03/17 03:49:58;;;;;;;;;;;;;;;6.04;82.96;100640.81;5052661;28;19909;-49
2022/03/17 03:52:24;;;;;;;;;;;;;;;5.78;84.58;100642.53;5052010;28;20237;-51
2022/03/17 03:54:49;;;;;;;;;;;;;;;6.32;85.08;100653.09;5052626;28;19908;-51
2022/03/17 03:57:14;;;;;;;;;;;;;;;6.53;82.35;100653.59;5052896;28;20015;-52
2022/03/17 03:59:42;;;;;;;;;;;;;;;6.05;83.67;100654.88;5052656;28;19913;-53
2022/03/17 04:02:08;;;;;;;;;;;;;;;5.87;83.78;100662.78;5051677;28;19978;-54
2022/03/17 04:04:34;;;;;;;;;;;;;;;5.87;84.19;100657.50;5051537;28;19915;-38
2022/03/17 04:07:03;;;;;;;;;;;;;;;5.94;82.73;100673.56;5054443;28;19908;-41
2022/03/17 04:09:30;;;;;;;;;;;;;;;6.28;81.25;100671.06;5051842;28;19936;-37
2022/03/17 04:11:55;;;;;;;;;;;;;;;6.13;82.11;100670.81;5051666;28;19951;-37
2022/03/17 04:14:21;;;;;;;;;;;;;;;6.13;81.23;100676.09;5051795;28;19944;-37
2022/03/17 04:16:47;;;;;;;;;;;;;;;6.15;81.92;100675.91;5051950;28;19909;-38
2022/03/17 04:19:14;;;;;;;;;;;;;;;6.29;80.48;100671.94;5051973;28;20003;-38
2022/03/17 04:21:39;;;;;;;;;;;;;;;6.16;80.66;100678.41;5051889;28;19995;-37
2022/03/17 04:24:05;;;;;;;;;;;;;;;6.26;81.02;100681.81;5051497;28;19936;-38
2022/03/17 04:26:30;;;;;;;;;;;;;;;6.15;81.31;100682.06;5051522;28;20467;-38
2022/03/17 04:28:56;;;;;;;;;;;;;;;6.21;80.70;100686.72;5051791;28;20003;-38
2022/03/17 04:31:22;;;;;;;;;;;;;;;6.00;81.57;100694.13;5051566;28;19919;-38
2022/03/17 04:33:47;;;;;;;;;;;;;;;5.77;81.87;100689.25;5051807;28;19915;-38
2022/03/17 04:36:13;;;;;;;;;;;;;;;5.90;81.13;100701.25;5051434;28;19909;-37
2022/03/17 04:38:38;;;;;;;;;;;;;;;6.85;80.76;100705.91;5050719;28;19917;-39
2022/03/17 04:41:04;;;;;;;;;;;;;;;7.14;78.33;100711.84;5050602;28;19913;-38
2022/03/17 04:43:29;;;;;;;;;;;;;;;8.00;77.07;100716.97;5050173;28;20007;-39
2022/03/17 04:45:54;;;;;;;;;;;;;;;8.00;74.20;100724.09;5049599;28;19978;-37
2022/03/17 04:48:20;;;;;;;;;;;;;;;8.89;75.71;100719.84;5050335;28;20340;-38
2022/03/17 04:50:45;;;;;;;;;;;;;;;8.94;70.14;100730.75;5050489;28;19920;-37
2022/03/17 04:55:55;;;;;;;;;;;;;;;7.76;70.97;100727.50;5051599;28;20003;-39
2022/03/17 04:58:20;;;;;;;;;;;;;;;7.03;73.29;100732.28;5051104;28;19919;-37
2022/03/17 05:00:46;;;;;;;;;;;;;;;6.75;74.45;100733.44;5049944;28;19909;-37
2022/03/17 05:03:12;;;;;;;;;;;;;;;7.63;72.31;100736.75;5049828;28;19912;-38
2022/03/17 05:05:37;;;;;;;;;;;;;;;7.30;72.33;100738.41;5049165;28;19952;-38
2022/03/17 05:08:03;;;;;;;;;;;;;;;6.75;73.90;100741.38;5049483;28;19913;-37
2022/03/17 05:10:28;;;;;;;;;;;;;;;6.39;76.00;100747.50;5049056;28;20348;-38
2022/03/17 05:12:54;;;;;;;;;;;;;;;5.99;79.37;100753.25;5049349;28;19909;-38
2022/03/17 05:15:20;;;;;;;;;;;;;;;6.13;78.47;100760.66;5049766;28;19917;-38
2022/03/17 05:17:47;;;;;;;;;;;;;;;6.33;79.30;100757.88;5046303;28;19909;-38
2022/03/17 05:20:12;;;;;;;;;;;;;;;7.18;76.47;100750.25;5049230;28;19954;-39
2022/03/17 05:22:39;;;;;;;;;;;;;;;6.63;76.57;100757.47;5050211;28;19956;-38
2022/03/17 05:25:05;;;;;;;;;;;;;;;6.47;77.26;100759.97;5047974;28;19927;-38
2022/03/17 05:27:30;;;;;;;;;;;;;;;6.22;77.47;100764.22;5049330;28;19995;-39
2022/03/17 05:29:56;;;;;;;;;;;;;;;6.15;78.64;100769.28;5049819;28;20011;-39
2022/03/17 05:32:21;;;;;;;;;;;;;;;5.93;79.44;100773.13;5048363;28;20343;-38
2022/03/17 05:34:47;;;;;;;;;;;;;;;6.12;79.18;100774.84;5049406;28;19909;-37
2022/03/17 05:37:13;;;;;;;;;;;;;;;6.02;79.92;100772.28;5049774;28;19980;-38
2022/03/17 05:39:38;;;;;;;;;;;;;;;6.54;78.65;100766.31;5049489;28;19912;-38
2022/03/17 05:42:03;;;;;;;;;;;;;;;6.40;78.04;100777.44;5049429;28;19909;-38
2022/03/17 05:44:29;;;;;;;;;;;;;;;6.30;77.78;100780.16;5047664;28;20575;-37
2022/03/17 05:46:54;;;;;;;;;;;;;;;6.05;79.50;100781.72;5048710;28;20020;-38
2022/03/17 05:49:19;;;;;;;;;;;;;;;5.86;80.95;100788.75;5049781;28;19958;-38
2022/03/17 05:51:45;;;;;;;;;;;;;;;5.73;81.85;100790.06;5049947;28;19908;-38
2022/03/17 05:54:10;;;;;;;;;;;;;;;5.81;81.87;100796.28;5050281;28;20300;-38
2022/03/17 05:56:35;;;;;;;;;;;;;;;6.21;81.95;100797.75;5049429;28;19909;-38
2022/03/17 05:59:00;;;;;;;;;;;;;;;6.75;80.23;100802.22;5048924;28;20397;-38
2022/03/17 06:01:26;;;;;;;;;;;;;;;6.19;80.65;100810.28;5048893;28;19931;-40
2022/03/17 06:03:51;;;;;;;;;;;;;;;6.18;80.87;100815.72;5047234;28;19912;-38
2022/03/17 06:06:16;;;;;;;;;;;;;;;6.23;80.46;100813.47;5051506;28;19978;-37
2022/03/17 06:08:42;;;;;;;;;;;;;;;6.20;81.12;100825.16;5049307;28;20357;-39
2022/03/17 06:11:07;;;;;;;;;;;;;;;6.09;80.46;100830.63;5011757;28;19921;-38
2022/03/17 06:13:32;;;;;;;;;;;;;;;5.96;80.66;100830.16;5042523;28;19915;-38
2022/03/17 06:15:57;;;;;;;;;;;;;;;5.97;81.14;100842.41;5048496;28;20356;-37
2022/03/17 06:18:23;;;;;;;;;;;;;;;6.66;78.34;100838.34;5047783;28;19920;-36
2022/03/17 06:20:48;;;;;;;;;;;;;;;6.46;78.46;100846.41;5047555;28;19913;-37
2022/03/17 06:23:13;;;;;;;;;;;;;;;6.25;78.75;100851.16;5046603;28;19913;-37
2022/03/17 06:25:39;;;;;;;;;;;;;;;6.02;80.08;100853.38;5048956;28;20380;-37
2022/03/17 06:28:05;;;;;;;;;;;;;;;5.94;81.16;100856.72;5051458;28;19981;-37
2022/03/17 06:30:36;;;;;;;;;;;;;;;6.29;81.31;100864.91;5051748;28;20300;-38
2022/03/17 06:33:04;;;;;;;;;;;;;;;6.59;78.64;100867.22;5049941;28;19948;-38
2022/03/17 06:35:30;;;;;;;;;;;;;;;6.17;78.86;100875.69;5051188;28;20282;-38
2022/03/17 06:37:58;;;;;;;;;;;;;;;6.29;78.55;100875.50;5050936;28;19909;-38
2022/03/17 06:40:24;;;;;;;;;;;;;;;6.26;77.34;100885.38;5051065;28;19913;-38
2022/03/17 06:42:50;;;;;;;;;;;;;;;6.23;78.33;100903.34;5051147;28;20369;-39
2022/03/17 06:45:15;;;;;;;;;;;;;;;6.40;79.16;100902.56;5051470;28;20000;-42
2022/03/17 06:47:41;;;;;;;;;;;;;;;7.03;75.42;100904.34;5052115;28;20012;-39
2022/03/17 06:50:07;;;;;;;;;;;;;;;6.45;75.86;100902.94;5052634;28;19991;-37
2022/03/17 06:52:32;;;;;;;;;;;;;;;6.29;76.32;100912.50;5051929;28;19912;-37
2022/03/17 06:54:57;;;;;;;;;;;;;;;6.30;75.91;100914.16;5052653;28;19931;-38
2022/03/17 06:57:23;;;;;;;;;;;;;;;6.15;76.07;100922.59;5052350;28;19915;-39
2022/03/17 06:59:49;;;;;;;;;;;;;;;6.12;75.73;100925.50;5052249;28;19913;-36
2022/03/17 07:02:15;;;;;;;;;;;;;;;6.50;74.14;100922.81;5052265;28;20257;-38
2022/03/17 07:04:40;;;;;;;;;;;;;;;6.38;73.63;100922.19;5051127;28;19996;-37
2022/03/17 07:07:06;;;;;;;;;;;;;;;6.45;73.82;100924.09;5054689;28;20007;-37
2022/03/17 07:09:31;;;;;;;;;;;;;;;6.05;74.31;100914.69;5052461;28;19925;-37
2022/03/17 07:11:57;;;;;;;;;;;;;;;6.25;73.46;100928.66;5051745;28;19909;-37
2022/03/17 07:14:22;;;;;;;;;;;;;;;6.09;75.30;100923.13;5052109;28;20364;-38
2022/03/17 07:16:47;;;;;;;;;;;;;;;6.95;71.15;100930.75;5052211;28;20162;-38
2022/03/17 07:19:13;;;;;;;;;;;;;;;6.75;70.43;100937.97;5052110;28;19923;-38
2022/03/17 07:21:39;;;;;;;;;;;;;;;6.37;70.94;100939.03;5052038;28;19913;-39
2022/03/17 07:24:05;;;;;;;;;;;;;;;5.93;72.83;100933.47;5052095;28;20347;-37
2022/03/17 07:26:30;;;;;;;;;;;;;;;6.21;73.08;100939.66;5051128;28;19917;-38
2022/03/17 07:28:56;;;;;;;;;;;;;;;6.42;72.50;100944.72;5051545;28;19908;-38
2022/03/17 07:31:22;;;;;;;;;;;;;;;6.52;72.28;100950.78;5034025;28;19913;-38
2022/03/17 07:33:49;;;;;;;;;;;;;;;6.43;70.83;100944.53;5051046;28;19969;-38
2022/03/17 07:36:15;;;;;;;;;;;;;;;6.34;71.36;100949.88;5050350;28;20388;-38
2022/03/17 07:38:40;;;;;;;;;;;;;;;6.28;70.94;100953.13;5051416;28;19920;-38
2022/03/17 07:41:05;;;;;;;;;;;;;;;6.72;69.34;100955.94;5052079;28;19987;-38
2022/03/17 07:43:31;;;;;;;;;;;;;;;6.65;69.97;100964.50;5051469;28;19912;-38
2022/03/17 07:45:56;;;;;;;;;;;;;;;6.99;70.09;100957.75;5051618;28;19909;-39
2022/03/17 07:48:21;;;;;;;;;;;;;;;7.31;66.69;100973.09;5050497;28;19915;-38
2022/03/17 07:50:47;;;;;;;;;;;;;;;7.06;67.77;100961.44;5051530;28;19908;-38
2022/03/17 07:53:12;;;;;;;;;;;;;;;6.74;69.84;100973.38;5051268;28;19909;-38
2022/03/17 07:55:37;;;;;;;;;;;;;;;6.68;70.10;100966.00;5051683;28;20397;-37
2022/03/17 07:58:03;;;;;;;;;;;;;;;6.64;69.21;100976.06;5051338;28;19999;-37
2022/03/17 08:00:28;;;;;;;;;;;;;;;6.91;68.70;100971.72;5051393;28;20003;-38
2022/03/17 08:02:54;;;;;;;;;;;;;;;6.96;67.77;100981.84;5051285;28;20341;-38
2022/03/17 08:05:20;;;;;;;;;;;;;;;7.93;65.03;100981.00;5054058;28;20269;-38
2022/03/17 08:07:45;;;;;;;;;;;;;;;7.42;65.63;100994.06;5050138;28;20003;-38
2022/03/17 08:10:10;;;;;;;;;;;;;;;7.09;67.46;100994.72;5051639;28;19916;-38
2022/03/17 08:12:36;;;;;;;;;;;;;;;6.58;68.95;100994.31;5050580;28;19958;-38
2022/03/17 08:15:05;;;;;;;;;;;;;;;6.84;67.91;100997.94;5050698;28;20335;-39
2022/03/17 08:17:30;;;;;;;;;;;;;;;6.94;67.79;100995.22;5050612;28;20416;-37
2022/03/17 08:19:55;;;;;;;;;;;;;;;7.66;65.84;100995.22;5051141;28;19913;-39
2022/03/17 08:22:21;;;;;;;;;;;;;;;7.33;65.92;100989.66;5051426;28;19913;-39
2022/03/17 08:24:46;;;;;;;;;;;;;;;7.12;67.03;101005.84;5051010;28;20443;-37
2022/03/17 08:27:11;;;;;;;;;;;;;;;7.00;66.73;101005.22;5050919;28;19920;-37
2022/03/17 08:29:38;;;;;;;;;;;;;;;6.81;65.91;101008.81;5050888;28;19920;-37
2022/03/17 08:32:05;;;;;;;;;;;;;;;6.50;67.56;101010.91;5050675;28;19908;-37
2022/03/17 08:34:30;;;;;;;;;;;;;;;6.83;68.21;101008.66;5050765;28;19948;-38
2022/03/17 08:36:56;;;;;;;;;;;;;;;7.29;66.25;101008.63;5050582;28;20033;-38
2022/03/17 08:39:21;;;;;;;;;;;;;;;7.35;64.77;101005.38;5050548;28;19919;-37
2022/03/17 08:41:47;;;;;;;;;;;;;;;7.26;64.26;100996.53;5050274;28;19909;-36
2022/03/17 08:44:12;;;;;;;;;;;;;;;7.31;64.05;101004.88;5050772;28;20187;-37
2022/03/17 08:49:24;;;;;;;;;;;;;;;7.43;65.08;101008.94;5050282;28;20006;-38
2022/03/17 08:51:54;;;;;;;;;;;;;;;7.31;64.52;101015.47;5050469;28;20007;-37
2022/03/17 08:54:20;;;;;;;;;;;;;;;7.13;65.44;101009.31;5050182;28;19909;-37
2022/03/17 08:56:46;;;;;;;;;;;;;;;7.22;63.40;101009.25;5050353;28;19915;-37
2022/03/17 08:59:11;;;;;;;;;;;;;;;7.03;65.42;101010.22;5050540;28;20315;-37
2022/03/17 09:01:37;;;;;;;;;;;;;;;7.20;64.60;101018.34;5050274;28;19915;-37
2022/03/17 09:04:03;;;;;;;;;;;;;;;7.35;64.55;101016.81;5049868;28;19921;-38
2022/03/17 09:06:28;;;;;;;;;;;;;;;7.42;64.85;101019.69;5050256;28;19912;-39
2022/03/17 09:08:54;;;;;;;;;;;;;;;7.64;62.54;101019.22;5050520;28;19924;-38
2022/03/17 09:11:19;;;;;;;;;;;;;;;7.61;62.06;101022.16;5049298;28;20190;-50
2022/03/17 09:13:46;;;;;;;;;;;;;;;7.55;62.52;101020.13;5049084;28;19912;-50
2022/03/17 09:16:12;;;;;;;;;;;;;;;7.65;63.35;101020.03;5049682;28;19916;-52
2022/03/17 09:18:37;;;;;;;;;;;;;;;7.65;62.78;101028.00;5049640;28;19970;-51
2022/03/17 09:21:03;;;;;;;;;;;;;;;7.28;63.35;101028.19;5049621;28;19908;-49
2022/03/17 09:23:32;;;;;;;;;;;;;;;7.87;61.39;101028.53;5049720;28;20015;-51
2022/03/17 09:25:57;;;;;;;;;;;;;;;7.81;60.51;101033.44;5059636;28;19964;-51
2022/03/17 09:28:22;;;;;;;;;;;;;;;7.66;60.13;101034.97;5069452;28;20265;-51
2022/03/17 09:30:48;;;;;;;;;;;;;;;7.32;62.96;101034.84;5069473;28;19951;-51
2022/03/17 09:33:14;;;;;;;;;;;;;;;7.68;61.92;101033.00;5069150;28;19909;-50
2022/03/17 09:35:39;;;;;;;;;;;;;;;7.66;61.61;101047.41;5069208;28;19913;-52
2022/03/17 09:38:05;;;;;;;;;;;;;;;7.35;62.97;101040.66;5069247;28;19978;-49
2022/03/17 09:40:31;;;;;;;;;;;;;;;7.80;61.98;101039.72;5068865;28;20376;-49
2022/03/17 09:45:41;;;;;;;;;;;;;;;7.80;61.60;101039.72;5069566;28;20414;-51
2022/03/17 09:48:08;;;;;;;;;;;;;;;7.80;61.79;101052.97;5069119;28;20008;-50
2022/03/17 09:50:34;;;;;;;;;;;;;;;7.88;61.34;101046.06;5069670;28;19913;-50
2022/03/17 09:52:59;;;;;;;;;;;;;;;7.39;62.50;101049.97;5069249;28;19915;-52
2022/03/17 09:55:25;;;;;;;;;;;;;;;7.36;62.92;101052.09;5069472;28;19908;-51
2022/03/17 09:57:50;;;;;;;;;;;;;;;7.85;61.18;101057.00;5069097;28;20395;-52
2022/03/17 10:00:16;;;;;;;;;;;;;;;8.07;61.16;101053.81;5070817;28;19912;-50
2022/03/17 10:02:41;;;;;;;;;;;;;;;7.91;59.87;101051.06;5073141;28;20312;-51
2022/03/17 10:05:11;;;;;;;;;;;;;;;7.78;61.55;101046.97;5071315;28;19995;-51
2022/03/17 10:07:36;;;;;;;;;;;;;;;7.69;61.55;101050.59;5052957;28;20332;-49
2022/03/17 10:10:02;;;;;;;;;;;;;;;7.67;61.98;101052.53;5052840;28;19913;-49
2022/03/17 10:12:30;;;;;;;;;;;;;;;7.83;61.05;101057.16;5053285;28;20394;-50
2022/03/17 10:14:56;;;;;;;;;;;;;;;8.05;60.64;101054.97;5053100;28;19990;-49
2022/03/17 10:17:32;;;;;;;;;;;;;;;7.99;61.19;101056.44;5053302;28;19932;-50
2022/03/17 10:20:13;;;;;;;;;;;;;;;8.17;60.91;101045.78;5052891;28;19913;-51
2022/03/17 10:22:43;;;;;;;;;;;;;;;8.25;59.14;101052.97;5052771;28;19913;-51
2022/03/17 10:25:08;;;;;;;;;;;;;;;7.99;59.62;101059.06;5052734;28;19927;-50
2022/03/17 10:27:37;;;;;;;;;;;;;;;7.90;60.32;101054.69;5053035;28;19909;-50
2022/03/17 10:30:06;;;;;;;;;;;;;;;7.72;61.28;101052.91;5053108;28;19913;-51
2022/03/17 10:32:31;;;;;;;;;;;;;;;7.74;60.81;101050.94;5052538;28;19909;-49
2022/03/17 10:34:56;;;;;;;;;;;;;;;7.55;62.11;101051.94;5052560;28;19915;-51
2022/03/17 10:37:23;;;;;;;;;;;;;;;7.52;62.09;101062.00;5052895;28;19923;-51
2022/03/17 10:39:49;;;;;;;;;;;;;;;7.69;61.49;101050.59;5052521;28;19912;-53
2022/03/17 10:42:19;;;;;;;;;;;;;;;8.21;59.72;101063.06;5052136;28;19912;-52
2022/03/17 10:44:47;;;;;;;;;;;;;;;7.94;60.39;101066.66;5052320;28;19909;-52
2022/03/17 10:47:12;;;;;;;;;;;;;;;8.01;60.21;101070.34;5052604;28;19959;-50
2022/03/17 10:49:38;;;;;;;;;;;;;;;8.00;60.01;101063.41;5052513;28;19956;-53
2022/03/17 10:52:03;;;;;;;;;;;;;;;8.09;59.34;101074.88;5052305;28;19948;-52
2022/03/17 10:54:29;;;;;;;;;;;;;;;7.98;58.84;101076.00;5052437;28;19909;-47
2022/03/17 10:56:57;;;;;;;;;;;;;;;7.88;59.47;101073.44;5052109;28;19909;-52
2022/03/17 10:59:22;;;;;;;;;;;;;;;8.73;57.23;101063.03;5052191;28;19951;-52
2022/03/17 11:01:48;;;;;;;;;;;;;;;8.63;57.04;101061.50;5052158;28;19912;-52
2022/03/17 11:04:14;;;;;;;;;;;;;;;8.17;57.99;101059.06;5052447;28;19991;-51
2022/03/17 11:06:39;;;;;;;;;;;;;;;7.76;59.47;101066.69;5066440;28;19912;-51
2022/03/17 11:09:08;;;;;;;;;;;;;;;8.20;58.27;101061.38;5071789;28;20411;-52
2022/03/17 11:11:34;;;;;;;;;;;;;;;8.21;58.66;101049.78;5051787;28;19994;-53
2022/03/17 11:13:59;;;;;;;;;;;;;;;8.61;57.50;101054.53;5051833;28;20455;-52
2022/03/17 11:16:30;;;;;;;;;;;;;;;9.28;55.59;101051.09;5052063;28;20077;-52
2022/03/17 11:18:56;;;;;;;;;;;;;;;8.88;55.65;101044.69;5051888;28;19913;-52
2022/03/17 11:21:29;;;;;;;;;;;;;;;8.28;58.16;101042.88;5051731;28;20309;-52
2022/03/17 11:24:06;;;;;;;;;;;;;;;8.32;58.58;101048.69;5051802;28;19912;-49
2022/03/17 11:26:34;;;;;;;;;;;;;;;8.58;57.46;101044.22;5051078;28;20475;-49
2022/03/17 11:29:13;;;;;;;;;;;;;;;8.85;58.00;101042.34;5051348;28;20381;-52
2022/03/17 11:31:56;;;;;;;;;;;;;;;8.79;56.15;101042.97;5051670;28;19984;-52
2022/03/17 11:34:46;;;;;;;;;;;;;;;8.52;57.08;101033.41;5051316;28;19916;-51
2022/03/17 11:37:23;;;;;;;;;;;;;;;8.66;57.23;101042.59;5051468;28;19916;-50
2022/03/17 11:39:52;;;;;;;;;;;;;;;8.21;58.34;101037.38;5050846;28;19977;-51
2022/03/17 11:42:30;;;;;;;;;;;;;;;8.45;58.21;101032.38;5051539;28;20404;-52
2022/03/17 11:45:03;;;;;;;;;;;;;;;9.55;55.29;101027.88;5051596;28;19908;-51
2022/03/17 11:47:29;;;;;;;;;;;;;;;8.98;56.75;101032.09;5051280;28;20011;-49
2022/03/17 11:49:54;;;;;;;;;;;;;;;9.03;55.89;101030.81;5051513;28;19909;-49
2022/03/17 11:52:21;;;;;;;;;;;;;;;9.02;56.53;101027.28;5051512;28;19975;-51
2022/03/17 11:54:46;;;;;;;;;;;;;;;8.49;58.73;101025.75;5051126;28;19909;-49
2022/03/17 11:57:14;;;;;;;;;;;;;;;8.79;57.63;101022.56;5051543;28;19912;-50
2022/03/17 11:59:55;;;;;;;;;;;;;;;9.38;55.62;101035.00;5051220;28;19935;-52
2022/03/17 12:02:27;;;;;;;;;;;;;;;8.83;57.43;101024.91;5051077;28;19927;-51
2022/03/17 12:04:52;;;;;;;;;;;;;;;8.72;57.59;101023.38;5051220;28;20023;-52
2022/03/17 12:07:19;;;;;;;;;;;;;;;8.65;58.89;101028.50;5071291;28;20003;-51
2022/03/17 12:09:45;;;;;;;;;;;;;;;8.89;57.55;101027.78;5071758;28;19916;-51
2022/03/17 12:12:17;;;;;;;;;;;;;;;8.89;58.23;101026.91;5071101;28;19909;-52
2022/03/17 12:15:10;;;;;;;;;;;;;;;9.33;56.88;101027.53;5071026;28;19919;-52
2022/03/17 12:17:35;;;;;;;;;;;;;;;9.29;55.95;101028.00;5067060;28;19909;-50
2022/03/17 12:20:22;;;;;;;;;;;;;;;9.42;55.61;101031.00;5071176;28;20364;-50
2022/03/17 12:22:49;;;;;;;;;;;;;;;8.82;57.42;101025.94;5070354;28;19916;-49
2022/03/17 12:25:16;;;;;;;;;;;;;;;8.67;57.94;101026.50;5070697;28;19916;-50
2022/03/17 12:27:43;;;;;;;;;;;;;;;9.33;56.51;101030.19;5071055;28;19935;-48
2022/03/17 12:30:16;;;;;;;;;;;;;;;8.89;56.62;101027.78;5071166;28;19908;-47
2022/03/17 12:32:58;;;;;;;;;;;;;;;8.26;58.30;101028.91;5070445;28;19919;-52
2022/03/17 12:35:24;;;;;;;;;;;;;;;8.56;58.67;101034.75;5070265;28;19916;-49
2022/03/17 12:37:57;;;;;;;;;;;;;;;8.78;58.16;101041.34;5070485;28;19936;-50
2022/03/17 12:40:22;;;;;;;;;;;;;;;8.34;59.48;101059.97;5057719;28;19935;-52
2022/03/17 12:42:49;;;;;;;;;;;;;;;7.57;65.30;101057.91;5050154;28;20372;-51
2022/03/17 12:45:15;;;;;;;;;;;;;;;6.58;69.22;101066.56;5050272;28;19908;-50
2022/03/17 12:47:42;;;;;;;;;;;;;;;5.82;72.91;101074.50;5050565;28;19997;-52
2022/03/17 12:50:11;;;;;;;;;;;;;;;5.73;73.69;101088.53;5050723;28;19958;-50
2022/03/17 12:52:39;;;;;;;;;;;;;;;5.57;74.92;101094.38;5050247;28;20324;-51
2022/03/17 12:55:06;;;;;;;;;;;;;;;5.86;75.01;101083.78;5050346;28;19919;-52
2022/03/17 12:57:32;;;;;;;;;;;;;;;5.99;74.77;101087.03;5050752;28;19913;-53
2022/03/17 12:59:58;;;;;;;;;;;;;;;6.10;74.58;101091.31;5050391;28;19913;-51